sensor_id;sensor_type;location;lat;lon;timestamp;pressure;altitude;pressure_sealevel;temperature;humidity
12868;BME280;33517;49.866;8.320;2022-09-16T00:02:42;99934.66;;;15.99;73.25
12868;BME280;33517;49.866;8.320;2022-09-16T00:05:39;99928.53;;;15.99;73.17
12868;BME280;33517;49.866;8.320;2022-09-16T00:08:31;99925.31;;;15.84;74.52
12868;BME280;33517;49.866;8.320;2022-09-16T00:11:23;99924.94;;;15.80;74.85
12868;BME280;33517;49.866;8.320;2022-09-16T00:14:15;99921.06;;;15.76;74.91
12868;BME280;33517;49.866;8.320;2022-09-16T00:17:07;99924.34;;;15.72;75.21
12868;BME280;33517;49.866;8.320;2022-09-16T00:19:59;99909.69;;;15.69;75.48
12868;BME280;33517;49.866;8.320;2022-09-16T00:22:52;99921.50;;;15.66;75.63
12868;BME280;33517;49.866;8.320;2022-09-16T00:25:49;99922.75;;;15.64;75.74
12868;BME280;33517;49.866;8.320;2022-09-16T00:28:41;99911.78;;;15.54;76.38
12868;BME280;33517;49.866;8.320;2022-09-16T00:31:32;99919.75;;;15.54;76.17
12868;BME280;33517;49.866;8.320;2022-09-16T00:34:24;99922.34;;;15.60;75.58
12868;BME280;33517;49.866;8.320;2022-09-16T00:37:16;99909.25;;;15.65;74.57
12868;BME280;33517;49.866;8.320;2022-09-16T00:40:10;99916.22;;;15.66;74.11
12868;BME280;33517;49.866;8.320;2022-09-16T00:43:02;99908.03;;;15.68;73.75
12868;BME280;33517;49.866;8.320;2022-09-16T00:45:56;99913.34;;;15.68;73.51
12868;BME280;33517;49.866;8.320;2022-09-16T00:48:50;99913.16;;;15.63;73.94
12868;BME280;33517;49.866;8.320;2022-09-16T00:51:43;99912.34;;;15.62;74.19
12868;BME280;33517;49.866;8.320;2022-09-16T00:54:38;99918.88;;;15.60;74.56
12868;BME280;33517;49.866;8.320;2022-09-16T00:57:33;99918.69;;;15.55;74.62
12868;BME280;33517;49.866;8.320;2022-09-16T01:00:25;99909.31;;;15.52;74.51
12868;BME280;33517;49.866;8.320;2022-09-16T01:03:18;99914.19;;;15.62;74.15
12868;BME280;33517;49.866;8.320;2022-09-16T01:06:10;99919.31;;;15.57;74.10
12868;BME280;33517;49.866;8.320;2022-09-16T01:09:04;99907.28;;;15.54;74.18
12868;BME280;33517;49.866;8.320;2022-09-16T01:11:56;99917.47;;;15.51;74.18
12868;BME280;33517;49.866;8.320;2022-09-16T01:14:49;99912.56;;;15.54;74.09
12868;BME280;33517;49.866;8.320;2022-09-16T01:18:07;99917.25;;;15.59;73.77
12868;BME280;33517;49.866;8.320;2022-09-16T01:21:12;99913.38;;;15.61;73.76
12868;BME280;33517;49.866;8.320;2022-09-16T01:24:32;99919.31;;;15.50;73.55
12868;BME280;33517;49.866;8.320;2022-09-16T01:27:38;99917.72;;;15.43;74.08
12868;BME280;33517;49.866;8.320;2022-09-16T01:30:42;99922.59;;;15.46;73.75
12868;BME280;33517;49.866;8.320;2022-09-16T01:33:42;99924.44;;;15.45;73.68
12868;BME280;33517;49.866;8.320;2022-09-16T01:36:44;99924.03;;;15.42;73.38
12868;BME280;33517;49.866;8.320;2022-09-16T01:39:46;99923.00;;;15.43;73.42
12868;BME280;33517;49.866;8.320;2022-09-16T01:42:45;99917.91;;;15.48;73.14
12868;BME280;33517;49.866;8.320;2022-09-16T01:45:49;99921.34;;;15.55;72.96
12868;BME280;33517;49.866;8.320;2022-09-16T01:48:50;99920.97;;;15.51;72.41
12868;BME280;33517;49.866;8.320;2022-09-16T01:51:49;99922.00;;;15.44;72.81
12868;BME280;33517;49.866;8.320;2022-09-16T01:54:47;99926.06;;;15.40;73.13
12868;BME280;33517;49.866;8.320;2022-09-16T01:57:46;99920.19;;;15.44;72.78
12868;BME280;33517;49.866;8.320;2022-09-16T02:00:44;99927.69;;;15.47;72.82
12868;BME280;33517;49.866;8.320;2022-09-16T02:03:39;99917.47;;;15.51;72.80
12868;BME280;33517;49.866;8.320;2022-09-16T02:06:33;99920.13;;;15.51;73.27
12868;BME280;33517;49.866;8.320;2022-09-16T02:09:30;99926.25;;;15.51;73.38
12868;BME280;33517;49.866;8.320;2022-09-16T02:12:26;99921.56;;;15.47;73.39
12868;BME280;33517;49.866;8.320;2022-09-16T02:15:22;99913.63;;;15.47;73.62
12868;BME280;33517;49.866;8.320;2022-09-16T02:18:21;99911.78;;;15.47;73.45
12868;BME280;33517;49.866;8.320;2022-09-16T02:21:15;99910.97;;;15.47;73.71
12868;BME280;33517;49.866;8.320;2022-09-16T02:24:11;99913.00;;;15.45;73.73
12868;BME280;33517;49.866;8.320;2022-09-16T02:27:08;99915.66;;;15.45;73.53
12868;BME280;33517;49.866;8.320;2022-09-16T02:30:04;99913.81;;;15.39;73.89
12868;BME280;33517;49.866;8.320;2022-09-16T02:32:59;99928.09;;;15.38;73.84
12868;BME280;33517;49.866;8.320;2022-09-16T02:35:54;99921.97;;;15.37;73.97
12868;BME280;33517;49.866;8.320;2022-09-16T02:38:48;99920.78;;;15.27;75.19
12868;BME280;33517;49.866;8.320;2022-09-16T02:41:42;99916.09;;;15.16;75.57
12868;BME280;33517;49.866;8.320;2022-09-16T02:44:34;99917.53;;;15.18;75.70
12868;BME280;33517;49.866;8.320;2022-09-16T02:47:29;99909.38;;;15.20;75.15
12868;BME280;33517;49.866;8.320;2022-09-16T02:50:27;99918.34;;;15.19;75.13
12868;BME280;33517;49.866;8.320;2022-09-16T02:53:26;99914.06;;;15.18;75.12
12868;BME280;33517;49.866;8.320;2022-09-16T02:56:28;99917.75;;;15.17;75.10
12868;BME280;33517;49.866;8.320;2022-09-16T02:59:22;99912.88;;;15.07;75.21
12868;BME280;33517;49.866;8.320;2022-09-16T03:02:14;99907.38;;;15.02;75.57
12868;BME280;33517;49.866;8.320;2022-09-16T03:05:07;99914.28;;;14.97;76.26
12868;BME280;33517;49.866;8.320;2022-09-16T03:08:00;99916.13;;;14.90;76.42
12868;BME280;33517;49.866;8.320;2022-09-16T03:10:56;99921.63;;;14.82;76.53
12868;BME280;33517;49.866;8.320;2022-09-16T03:13:55;99920.00;;;14.74;77.32
12868;BME280;33517;49.866;8.320;2022-09-16T03:16:55;99921.84;;;14.67;77.38
12868;BME280;33517;49.866;8.320;2022-09-16T03:19:58;99913.09;;;14.60;77.59
12868;BME280;33517;49.866;8.320;2022-09-16T03:22:59;99913.06;;;14.53;77.51
12868;BME280;33517;49.866;8.320;2022-09-16T03:25:59;99909.44;;;14.54;77.88
12868;BME280;33517;49.866;8.320;2022-09-16T03:29:04;99904.53;;;14.51;79.40
12868;BME280;33517;49.866;8.320;2022-09-16T03:32:05;99904.94;;;14.55;79.07
12868;BME280;33517;49.866;8.320;2022-09-16T03:35:06;99901.69;;;14.59;78.79
12868;BME280;33517;49.866;8.320;2022-09-16T03:38:00;99902.09;;;14.63;79.64
12868;BME280;33517;49.866;8.320;2022-09-16T03:40:52;99903.53;;;14.65;79.56
12868;BME280;33517;49.866;8.320;2022-09-16T03:43:52;99894.75;;;14.65;79.20
12868;BME280;33517;49.866;8.320;2022-09-16T03:46:44;99900.88;;;14.65;79.56
12868;BME280;33517;49.866;8.320;2022-09-16T03:49:36;99906.16;;;14.65;79.38
12868;BME280;33517;49.866;8.320;2022-09-16T03:52:29;99898.84;;;14.67;79.99
12868;BME280;33517;49.866;8.320;2022-09-16T03:55:20;99891.50;;;14.69;80.08
12868;BME280;33517;49.866;8.320;2022-09-16T03:58:12;99898.22;;;14.72;79.94
12868;BME280;33517;49.866;8.320;2022-09-16T04:01:05;99891.09;;;14.72;79.72
12868;BME280;33517;49.866;8.320;2022-09-16T04:03:57;99892.72;;;14.73;79.71
12868;BME280;33517;49.866;8.320;2022-09-16T04:06:49;99891.69;;;14.74;79.91
12868;BME280;33517;49.866;8.320;2022-09-16T04:09:41;99889.66;;;14.76;79.61
12868;BME280;33517;49.866;8.320;2022-09-16T04:12:33;99893.13;;;14.77;79.99
12868;BME280;33517;49.866;8.320;2022-09-16T04:15:25;99895.56;;;14.78;80.02
12868;BME280;33517;49.866;8.320;2022-09-16T04:18:18;99887.41;;;14.80;80.06
12868;BME280;33517;49.866;8.320;2022-09-16T04:21:10;99889.44;;;14.78;79.97
12868;BME280;33517;49.866;8.320;2022-09-16T04:24:02;99880.88;;;14.76;79.82
12868;BME280;33517;49.866;8.320;2022-09-16T04:26:53;99889.03;;;14.74;80.05
12868;BME280;33517;49.866;8.320;2022-09-16T04:29:45;99887.44;;;14.73;80.62
12868;BME280;33517;49.866;8.320;2022-09-16T04:32:37;99882.53;;;14.70;80.83
12868;BME280;33517;49.866;8.320;2022-09-16T04:35:30;99878.66;;;14.73;81.02
12868;BME280;33517;49.866;8.320;2022-09-16T04:38:22;99884.56;;;14.68;81.65
12868;BME280;33517;49.866;8.320;2022-09-16T04:41:15;99884.56;;;14.68;81.34
12868;BME280;33517;49.866;8.320;2022-09-16T04:44:09;99884.34;;;14.70;81.70
12868;BME280;33517;49.866;8.320;2022-09-16T04:47:00;99886.00;;;14.71;81.77
12868;BME280;33517;49.866;8.320;2022-09-16T04:49:52;99883.56;;;14.69;82.05
12868;BME280;33517;49.866;8.320;2022-09-16T04:52:45;99884.56;;;14.68;82.10
12868;BME280;33517;49.866;8.320;2022-09-16T04:55:37;99877.66;;;14.67;82.38
12868;BME280;33517;49.866;8.320;2022-09-16T04:58:29;99886.19;;;14.63;82.98
12868;BME280;33517;49.866;8.320;2022-09-16T05:01:23;99882.09;;;14.60;82.89
12868;BME280;33517;49.866;8.320;2022-09-16T05:04:15;99875.59;;;14.63;83.21
12868;BME280;33517;49.866;8.320;2022-09-16T05:07:07;99885.59;;;14.67;83.21
12868;BME280;33517;49.866;8.320;2022-09-16T05:10:00;99885.97;;;14.64;83.45
12868;BME280;33517;49.866;8.320;2022-09-16T05:12:53;99892.69;;;14.60;83.18
12868;BME280;33517;49.866;8.320;2022-09-16T05:15:44;99891.50;;;14.50;84.04
12868;BME280;33517;49.866;8.320;2022-09-16T05:18:37;99889.22;;;14.47;83.55
12868;BME280;33517;49.866;8.320;2022-09-16T05:21:31;99891.09;;;14.46;83.89
12868;BME280;33517;49.866;8.320;2022-09-16T05:24:23;99885.19;;;14.44;83.83
12868;BME280;33517;49.866;8.320;2022-09-16T05:27:16;99892.72;;;14.41;83.82
12868;BME280;33517;49.866;8.320;2022-09-16T05:30:09;99884.16;;;14.39;83.37
12868;BME280;33517;49.866;8.320;2022-09-16T05:33:03;99895.13;;;14.36;83.99
12868;BME280;33517;49.866;8.320;2022-09-16T05:36:02;99895.97;;;14.43;84.00
12868;BME280;33517;49.866;8.320;2022-09-16T05:38:54;99898.63;;;14.43;84.20
12868;BME280;33517;49.866;8.320;2022-09-16T05:41:47;99901.66;;;14.33;85.73
12868;BME280;33517;49.866;8.320;2022-09-16T05:44:40;99898.41;;;14.38;84.95
12868;BME280;33517;49.866;8.320;2022-09-16T05:47:32;99903.31;;;14.41;85.42
12868;BME280;33517;49.866;8.320;2022-09-16T05:50:24;99903.06;;;14.36;85.58
12868;BME280;33517;49.866;8.320;2022-09-16T05:53:15;99901.88;;;14.45;85.39
12868;BME280;33517;49.866;8.320;2022-09-16T05:56:10;99902.91;;;14.63;84.79
12868;BME280;33517;49.866;8.320;2022-09-16T05:59:02;99905.97;;;14.67;84.15
12868;BME280;33517;49.866;8.320;2022-09-16T06:01:55;99902.50;;;14.73;84.15
12868;BME280;33517;49.866;8.320;2022-09-16T06:04:47;99902.88;;;14.70;84.29
12868;BME280;33517;49.866;8.320;2022-09-16T06:07:39;99898.41;;;14.90;83.98
12868;BME280;33517;49.866;8.320;2022-09-16T06:10:36;99906.97;;;15.12;82.97
12868;BME280;33517;49.866;8.320;2022-09-16T06:13:28;99899.56;;;15.33;81.91
12868;BME280;33517;49.866;8.320;2022-09-16T06:16:20;99903.63;;;15.49;81.26
12868;BME280;33517;49.866;8.320;2022-09-16T06:19:15;99903.03;;;15.91;79.93
12868;BME280;33517;49.866;8.320;2022-09-16T06:22:07;99901.44;;;16.21;78.69
12868;BME280;33517;49.866;8.320;2022-09-16T06:24:59;99904.34;;;16.44;78.48
12868;BME280;33517;49.866;8.320;2022-09-16T06:27:51;99901.78;;;16.31;77.56
12868;BME280;33517;49.866;8.320;2022-09-16T06:30:43;99905.50;;;16.30;77.40
12868;BME280;33517;49.866;8.320;2022-09-16T06:33:35;99901.88;;;16.18;77.68
12868;BME280;33517;49.866;8.320;2022-09-16T06:36:30;99896.88;;;16.66;76.97
12868;BME280;33517;49.866;8.320;2022-09-16T06:39:22;99895.03;;;17.70;74.51
12868;BME280;33517;49.866;8.320;2022-09-16T06:42:14;99893.63;;;18.27;70.79
12868;BME280;33517;49.866;8.320;2022-09-16T06:45:06;99890.72;;;18.81;68.45
12868;BME280;33517;49.866;8.320;2022-09-16T06:47:58;99891.78;;;17.98;69.09
12868;BME280;33517;49.866;8.320;2022-09-16T06:50:57;99887.91;;;17.46;70.96
12868;BME280;33517;49.866;8.320;2022-09-16T06:53:51;99891.06;;;17.36;71.33
12868;BME280;33517;49.866;8.320;2022-09-16T06:56:43;99883.25;;;18.07;68.49
12868;BME280;33517;49.866;8.320;2022-09-16T06:59:35;99887.88;;;18.83;66.01
12868;BME280;33517;49.866;8.320;2022-09-16T07:02:27;99889.34;;;21.11;60.97
12868;BME280;33517;49.866;8.320;2022-09-16T07:05:20;99895.75;;;20.15;59.17
12868;BME280;33517;49.866;8.320;2022-09-16T07:08:12;99893.19;;;18.83;62.13
12868;BME280;33517;49.866;8.320;2022-09-16T07:11:07;99895.59;;;18.20;64.10
12868;BME280;33517;49.866;8.320;2022-09-16T07:13:59;99901.03;;;17.95;65.09
12868;BME280;33517;49.866;8.320;2022-09-16T07:16:51;99901.41;;;17.99;65.47
12868;BME280;33517;49.866;8.320;2022-09-16T07:19:43;99902.84;;;17.83;65.11
12868;BME280;33517;49.866;8.320;2022-09-16T07:22:35;99903.97;;;17.58;66.49
12868;BME280;33517;49.866;8.320;2022-09-16T07:25:27;99900.00;;;17.42;66.47
12868;BME280;33517;49.866;8.320;2022-09-16T07:28:20;99899.06;;;17.36;66.50
12868;BME280;33517;49.866;8.320;2022-09-16T07:31:14;99910.22;;;17.45;65.40
12868;BME280;33517;49.866;8.320;2022-09-16T07:34:10;99901.66;;;17.61;65.66
12868;BME280;33517;49.866;8.320;2022-09-16T07:37:03;99903.44;;;17.85;64.68
12868;BME280;33517;49.866;8.320;2022-09-16T07:39:54;99911.66;;;18.13;64.34
12868;BME280;33517;49.866;8.320;2022-09-16T07:42:46;99911.16;;;18.34;64.49
12868;BME280;33517;49.866;8.320;2022-09-16T07:45:39;99907.78;;;18.69;63.07
12868;BME280;33517;49.866;8.320;2022-09-16T07:48:32;99910.22;;;18.93;62.91
12868;BME280;33517;49.866;8.320;2022-09-16T07:51:25;99915.78;;;18.80;63.23
12868;BME280;33517;49.866;8.320;2022-09-16T07:54:18;99916.34;;;18.59;62.54
12868;BME280;33517;49.866;8.320;2022-09-16T07:57:11;99914.13;;;18.56;61.80
12868;BME280;33517;49.866;8.320;2022-09-16T08:00:03;99913.94;;;18.69;61.89
12868;BME280;33517;49.866;8.320;2022-09-16T08:02:57;99919.28;;;18.92;61.64
12868;BME280;33517;49.866;8.320;2022-09-16T08:05:50;99913.22;;;18.85;60.03
12868;BME280;33517;49.866;8.320;2022-09-16T08:08:42;99911.72;;;19.24;60.23
12868;BME280;33517;49.866;8.320;2022-09-16T08:11:35;99918.94;;;19.35;58.68
12868;BME280;33517;49.866;8.320;2022-09-16T08:14:26;99913.84;;;19.45;57.74
12868;BME280;33517;49.866;8.320;2022-09-16T08:17:18;99923.41;;;20.21;56.22
12868;BME280;33517;49.866;8.320;2022-09-16T08:20:13;99917.16;;;22.39;50.08
12868;BME280;33517;49.866;8.320;2022-09-16T08:23:05;99928.34;;;24.55;46.84
12868;BME280;33517;49.866;8.320;2022-09-16T08:25:57;99928.91;;;26.50;42.31
12868;BME280;33517;49.866;8.320;2022-09-16T08:28:49;99934.22;;;28.73;38.49
12868;BME280;33517;49.866;8.320;2022-09-16T08:31:41;99940.63;;;29.28;36.39
12868;BME280;33517;49.866;8.320;2022-09-16T08:34:33;99937.69;;;28.41;36.48
12868;BME280;33517;49.866;8.320;2022-09-16T08:37:26;99939.03;;;29.94;33.36
12868;BME280;33517;49.866;8.320;2022-09-16T08:40:20;99941.59;;;31.77;33.02
12868;BME280;33517;49.866;8.320;2022-09-16T08:43:16;99941.81;;;30.03;34.80
12868;BME280;33517;49.866;8.320;2022-09-16T08:46:19;99932.44;;;27.42;36.33
12868;BME280;33517;49.866;8.320;2022-09-16T08:49:18;99931.59;;;25.02;38.46
12868;BME280;33517;49.866;8.320;2022-09-16T08:52:15;99924.34;;;25.03;38.36
12868;BME280;33517;49.866;8.320;2022-09-16T08:55:18;99935.50;;;26.73;35.58
12868;BME280;33517;49.866;8.320;2022-09-16T08:58:15;99928.16;;;25.86;35.74
12868;BME280;33517;49.866;8.320;2022-09-16T09:01:15;99930.25;;;23.77;38.33
12868;BME280;33517;49.866;8.320;2022-09-16T09:04:10;99930.59;;;25.82;36.94
12868;BME280;33517;49.866;8.320;2022-09-16T09:07:07;99926.22;;;28.31;33.35
12868;BME280;33517;49.866;8.320;2022-09-16T09:10:12;99932.22;;;29.10;32.72
12868;BME280;33517;49.866;8.320;2022-09-16T09:13:12;99929.63;;;31.08;30.42
12868;BME280;33517;49.866;8.320;2022-09-16T09:16:14;99934.00;;;31.26;29.58
12868;BME280;33517;49.866;8.320;2022-09-16T09:19:18;99925.25;;;32.58;26.59
12868;BME280;33517;49.866;8.320;2022-09-16T09:22:24;99923.31;;;32.59;27.00
12868;BME280;33517;49.866;8.320;2022-09-16T09:25:31;99918.69;;;33.69;25.53
12868;BME280;33517;49.866;8.320;2022-09-16T09:28:46;99920.59;;;33.31;26.79
12868;BME280;33517;49.866;8.320;2022-09-16T09:31:47;99912.72;;;33.76;26.60
12868;BME280;33517;49.866;8.320;2022-09-16T09:34:57;99912.75;;;34.17;25.13
12868;BME280;33517;49.866;8.320;2022-09-16T09:38:09;99914.06;;;33.61;24.97
12868;BME280;33517;49.866;8.320;2022-09-16T09:41:09;99904.56;;;34.58;26.13
12868;BME280;33517;49.866;8.320;2022-09-16T09:44:14;99919.72;;;34.14;25.22
12868;BME280;33517;49.866;8.320;2022-09-16T09:47:12;99904.41;;;33.64;24.60
12868;BME280;33517;49.866;8.320;2022-09-16T09:50:14;99900.59;;;33.56;23.36
12868;BME280;33517;49.866;8.320;2022-09-16T09:53:13;99897.25;;;33.13;25.28
12868;BME280;33517;49.866;8.320;2022-09-16T09:56:16;99895.50;;;33.08;24.41
12868;BME280;33517;49.866;8.320;2022-09-16T09:59:18;99902.28;;;29.21;29.61
12868;BME280;33517;49.866;8.320;2022-09-16T10:02:15;99899.66;;;29.83;29.20
12868;BME280;33517;49.866;8.320;2022-09-16T10:05:16;99901.00;;;31.97;27.41
12868;BME280;33517;49.866;8.320;2022-09-16T10:08:15;99906.44;;;32.83;25.80
12868;BME280;33517;49.866;8.320;2022-09-16T10:11:16;99905.31;;;33.47;25.48
12868;BME280;33517;49.866;8.320;2022-09-16T10:14:22;99905.25;;;33.85;25.28
12868;BME280;33517;49.866;8.320;2022-09-16T10:17:16;99900.44;;;28.70;29.67
12868;BME280;33517;49.866;8.320;2022-09-16T10:20:28;99891.59;;;27.19;31.79
12868;BME280;33517;49.866;8.320;2022-09-16T10:23:22;99893.56;;;28.41;30.26
12868;BME280;33517;49.866;8.320;2022-09-16T10:26:21;99894.81;;;25.67;33.07
12868;BME280;33517;49.866;8.320;2022-09-16T10:29:15;99893.22;;;23.95;35.82
12868;BME280;33517;49.866;8.320;2022-09-16T10:32:12;99885.50;;;23.36;36.40
12868;BME280;33517;49.866;8.320;2022-09-16T10:35:07;99895.59;;;22.56;37.19
12868;BME280;33517;49.866;8.320;2022-09-16T10:38:01;99889.31;;;22.14;38.26
12868;BME280;33517;49.866;8.320;2022-09-16T10:40:55;99890.81;;;21.61;39.58
12868;BME280;33517;49.866;8.320;2022-09-16T10:43:53;99890.91;;;21.66;40.39
12868;BME280;33517;49.866;8.320;2022-09-16T10:46:52;99889.28;;;21.87;40.25
12868;BME280;33517;49.866;8.320;2022-09-16T10:49:46;99877.31;;;22.53;40.17
12868;BME280;33517;49.866;8.320;2022-09-16T10:52:41;99877.88;;;23.23;39.35
12868;BME280;33517;49.866;8.320;2022-09-16T10:55:33;99884.53;;;23.67;38.38
12868;BME280;33517;49.866;8.320;2022-09-16T10:58:27;99874.28;;;24.72;36.93
12868;BME280;33517;49.866;8.320;2022-09-16T11:01:30;99879.47;;;26.88;34.98
12868;BME280;33517;49.866;8.320;2022-09-16T11:04:39;99877.38;;;27.56;34.25
12868;BME280;33517;49.866;8.320;2022-09-16T11:07:42;99884.50;;;25.84;34.71
12868;BME280;33517;49.866;8.320;2022-09-16T11:10:39;99885.84;;;24.97;35.23
12868;BME280;33517;49.866;8.320;2022-09-16T11:13:45;99878.84;;;24.91;35.16
12868;BME280;33517;49.866;8.320;2022-09-16T11:16:55;99884.44;;;27.05;33.95
12868;BME280;33517;49.866;8.320;2022-09-16T11:20:08;99888.69;;;26.10;34.79
12868;BME280;33517;49.866;8.320;2022-09-16T11:23:15;99886.13;;;25.80;34.51
12868;BME280;33517;49.866;8.320;2022-09-16T11:26:16;99883.56;;;25.49;34.47
12868;BME280;33517;49.866;8.320;2022-09-16T11:29:26;99876.03;;;23.96;37.02
12868;BME280;33517;49.866;8.320;2022-09-16T11:32:43;99886.56;;;22.99;38.59
12868;BME280;33517;49.866;8.320;2022-09-16T11:36:10;99888.41;;;22.56;39.49
12868;BME280;33517;49.866;8.320;2022-09-16T11:39:16;99887.44;;;22.41;39.75
12868;BME280;33517;49.866;8.320;2022-09-16T11:42:15;99889.06;;;23.57;38.62
12868;BME280;33517;49.866;8.320;2022-09-16T11:45:35;99887.28;;;27.66;34.65
12868;BME280;33517;49.866;8.320;2022-09-16T11:48:46;99876.91;;;26.68;34.47
12868;BME280;33517;49.866;8.320;2022-09-16T11:51:52;99899.00;;;24.43;37.65
12868;BME280;33517;49.866;8.320;2022-09-16T11:55:03;99899.66;;;22.90;40.35
12868;BME280;33517;49.866;8.320;2022-09-16T11:58:17;99891.44;;;22.12;42.11
12868;BME280;33517;49.866;8.320;2022-09-16T12:01:20;99891.34;;;21.58;41.80
12868;BME280;33517;49.866;8.320;2022-09-16T12:04:20;99895.53;;;21.33;43.38
12868;BME280;33517;49.866;8.320;2022-09-16T12:07:17;99893.69;;;21.76;43.07
12868;BME280;33517;49.866;8.320;2022-09-16T12:10:14;99885.31;;;23.11;40.63
12868;BME280;33517;49.866;8.320;2022-09-16T12:13:11;99885.63;;;25.73;36.56
12868;BME280;33517;49.866;8.320;2022-09-16T12:16:08;99875.53;;;28.68;33.22
12868;BME280;33517;49.866;8.320;2022-09-16T12:19:08;99868.38;;;30.57;31.57
12868;BME280;33517;49.866;8.320;2022-09-16T12:22:06;99877.94;;;30.77;29.24
12868;BME280;33517;49.866;8.320;2022-09-16T12:25:02;99878.97;;;29.20;30.87
12868;BME280;33517;49.866;8.320;2022-09-16T12:28:00;99875.50;;;26.42;33.29
12868;BME280;33517;49.866;8.320;2022-09-16T12:31:00;99882.28;;;24.11;36.07
12868;BME280;33517;49.866;8.320;2022-09-16T12:33:56;99885.84;;;22.18;40.71
12868;BME280;33517;49.866;8.320;2022-09-16T12:36:54;99893.72;;;20.83;46.41
12868;BME280;33517;49.866;8.320;2022-09-16T12:39:50;99884.94;;;20.22;49.35
12868;BME280;33517;49.866;8.320;2022-09-16T12:46:56;99882.94;;;22.20;47.78
12868;BME280;33517;49.866;8.320;2022-09-16T12:50:16;99883.09;;;24.27;42.95
12868;BME280;33517;49.866;8.320;2022-09-16T12:53:30;99879.97;;;23.68;41.92
12868;BME280;33517;49.866;8.320;2022-09-16T12:56:47;99873.00;;;23.67;40.98
12868;BME280;33517;49.866;8.320;2022-09-16T13:00:03;99874.63;;;23.21;41.22
12868;BME280;33517;49.866;8.320;2022-09-16T13:03:02;99879.78;;;22.28;43.32
12868;BME280;33517;49.866;8.320;2022-09-16T13:06:03;99879.09;;;22.37;43.69
12868;BME280;33517;49.866;8.320;2022-09-16T13:09:12;99872.84;;;22.32;43.71
12868;BME280;33517;49.866;8.320;2022-09-16T13:12:18;99879.59;;;21.81;45.37
12868;BME280;33517;49.866;8.320;2022-09-16T13:15:22;99876.38;;;21.02;47.29
12868;BME280;33517;49.866;8.320;2022-09-16T13:18:21;99886.34;;;20.74;47.17
12868;BME280;33517;49.866;8.320;2022-09-16T13:21:23;99886.53;;;19.94;49.72
12868;BME280;33517;49.866;8.320;2022-09-16T13:24:21;99893.31;;;19.22;53.67
12868;BME280;33517;49.866;8.320;2022-09-16T13:27:29;99890.28;;;18.84;55.25
12868;BME280;33517;49.866;8.320;2022-09-16T13:30:30;99877.19;;;18.94;56.75
12868;BME280;33517;49.866;8.320;2022-09-16T13:33:25;99877.88;;;19.01;57.06
12868;BME280;33517;49.866;8.320;2022-09-16T13:36:29;99871.16;;;19.10;56.33
12868;BME280;33517;49.866;8.320;2022-09-16T13:39:32;99869.63;;;19.26;56.23
12868;BME280;33517;49.866;8.320;2022-09-16T13:42:26;99869.31;;;19.74;54.98
12868;BME280;33517;49.866;8.320;2022-09-16T13:45:34;99866.53;;;20.25;52.61
12868;BME280;33517;49.866;8.320;2022-09-16T13:48:27;99881.22;;;20.23;53.01
12868;BME280;33517;49.866;8.320;2022-09-16T13:51:24;99875.38;;;20.42;52.16
12868;BME280;33517;49.866;8.320;2022-09-16T13:54:28;99862.28;;;20.41;51.77
12868;BME280;33517;49.866;8.320;2022-09-16T13:57:37;99865.19;;;20.56;51.79
12868;BME280;33517;49.866;8.320;2022-09-16T14:00:38;99853.69;;;20.39;52.56
12868;BME280;33517;49.866;8.320;2022-09-16T14:03:53;99859.75;;;20.67;52.06
12868;BME280;33517;49.866;8.320;2022-09-16T14:07:09;99861.56;;;21.55;50.20
12868;BME280;33517;49.866;8.320;2022-09-16T14:10:10;99853.06;;;22.06;45.48
12868;BME280;33517;49.866;8.320;2022-09-16T14:13:10;99862.03;;;21.08;46.76
12868;BME280;33517;49.866;8.320;2022-09-16T14:16:11;99863.09;;;20.41;47.68
12868;BME280;33517;49.866;8.320;2022-09-16T14:19:07;99865.69;;;19.80;49.69
12868;BME280;33517;49.866;8.320;2022-09-16T14:22:13;99875.78;;;19.50;51.11
12868;BME280;33517;49.866;8.320;2022-09-16T14:25:24;99870.00;;;18.83;55.13
12868;BME280;33517;49.866;8.320;2022-09-16T14:28:19;99871.47;;;18.45;57.94
12868;BME280;33517;49.866;8.320;2022-09-16T14:31:14;99870.81;;;18.19;61.07
12868;BME280;33517;49.866;8.320;2022-09-16T14:34:07;99871.50;;;17.85;63.12
12868;BME280;33517;49.866;8.320;2022-09-16T14:37:03;99865.38;;;17.67;65.74
12868;BME280;33517;49.866;8.320;2022-09-16T14:40:02;99857.53;;;17.72;66.25
12868;BME280;33517;49.866;8.320;2022-09-16T14:42:57;99857.47;;;17.60;67.42
12868;BME280;33517;49.866;8.320;2022-09-16T14:45:56;99857.38;;;17.67;67.86
12868;BME280;33517;49.866;8.320;2022-09-16T14:48:50;99866.00;;;17.80;67.06
12868;BME280;33517;49.866;8.320;2022-09-16T14:51:44;99869.66;;;17.68;66.96
12868;BME280;33517;49.866;8.320;2022-09-16T14:54:42;99877.50;;;17.44;66.79
12868;BME280;33517;49.866;8.320;2022-09-16T14:57:35;99871.38;;;17.26;67.13
12868;BME280;33517;49.866;8.320;2022-09-16T15:00:30;99872.16;;;17.26;65.46
12868;BME280;33517;49.866;8.320;2022-09-16T15:03:30;99873.97;;;17.51;64.61
12868;BME280;33517;49.866;8.320;2022-09-16T15:06:26;99872.75;;;17.65;63.38
12868;BME280;33517;49.866;8.320;2022-09-16T15:09:24;99875.34;;;17.71;62.13
12868;BME280;33517;49.866;8.320;2022-09-16T15:12:22;99868.25;;;17.83;61.95
12868;BME280;33517;49.866;8.320;2022-09-16T15:15:19;99873.38;;;17.96;61.09
12868;BME280;33517;49.866;8.320;2022-09-16T15:18:20;99869.97;;;18.19;61.40
12868;BME280;33517;49.866;8.320;2022-09-16T15:21:18;99880.06;;;18.58;60.69
12868;BME280;33517;49.866;8.320;2022-09-16T15:24:16;99879.50;;;18.68;59.03
12868;BME280;33517;49.866;8.320;2022-09-16T15:27:10;99884.03;;;18.67;57.83
12868;BME280;33517;49.866;8.320;2022-09-16T15:30:02;99906.59;;;18.23;57.83
12868;BME280;33517;49.866;8.320;2022-09-16T15:32:55;99936.63;;;18.01;58.49
12868;BME280;33517;49.866;8.320;2022-09-16T15:35:47;99940.28;;;17.45;56.30
12868;BME280;33517;49.866;8.320;2022-09-16T15:38:41;99935.00;;;16.78;56.65
12868;BME280;33517;49.866;8.320;2022-09-16T15:41:33;99937.13;;;16.32;58.10
12868;BME280;33517;49.866;8.320;2022-09-16T15:44:26;99933.94;;;16.17;59.07